Time;durP1;ratioP1;P1;durP2;ratioP2;P2;SDS_P1;SDS_P2;PMS_P1;PMS_P2;Temp;Humidity;BMP_temperature;BMP_pressure;BME280_temperature;BME280_humidity;BME280_pressure;Samples;Min_cycle;Max_cycle;Signal;HPM_P1;HPM_P2
2024/04/01 00:00:46;;;;;;;0.93;0.40;;;;;;;10.73;100.00;96403.72;5093272;28;20024;-46
2024/04/01 00:03:12;;;;;;;1.05;0.40;;;;;;;10.73;100.00;96369.63;5093184;28;20032;-45
2024/04/01 00:05:37;;;;;;;3.53;0.57;;;;;;;10.74;100.00;96418.41;5092111;28;20405;-46
2024/04/01 00:08:03;;;;;;;0.00;0.00;;;;;;;10.72;100.00;96507.84;5093171;28;20035;-46
2024/04/01 00:10:29;;;;;;;2.45;0.75;;;;;;;10.77;100.00;96517.59;5093453;28;20432;-46
2024/04/01 00:12:57;;;;;;;2.35;0.75;;;;;;;10.24;100.00;96541.13;5093081;28;20088;-47
2024/04/01 00:15:23;;;;;;;3.00;0.60;;;;;;;10.00;100.00;96554.53;5092968;28;20122;-46
2024/04/01 00:17:49;;;;;;;1.85;0.70;;;;;;;9.96;100.00;96578.84;5092941;28;20069;-47
2024/04/01 00:20:15;;;;;;;0.80;0.45;;;;;;;9.94;100.00;96583.56;5091507;28;20466;-46
2024/04/01 00:22:40;;;;;;;7.40;3.72;;;;;;;9.87;100.00;96582.97;5090683;28;20027;-47
2024/04/01 00:25:06;;;;;;;6.05;1.10;;;;;;;9.92;100.00;96594.31;5092799;28;20405;-46
2024/04/01 00:27:34;;;;;;;28.95;26.00;;;;;;;10.07;100.00;96611.19;5091655;28;20062;-47
2024/04/01 00:30:00;;;;;;;3.95;2.90;;;;;;;10.22;100.00;96603.47;5092606;28;20028;-47
2024/04/01 00:32:25;;;;;;;3.42;1.40;;;;;;;10.25;100.00;96607.44;5091742;28;20024;-47
2024/04/01 00:34:51;;;;;;;7.13;2.28;;;;;;;10.32;100.00;96642.94;5092633;28;20512;-48
2024/04/01 00:37:17;;;;;;;2.42;1.48;;;;;;;10.46;100.00;96653.78;5092628;28;20035;-48
2024/04/01 00:39:42;;;;;;;4.63;2.03;;;;;;;10.49;100.00;96658.53;5092418;28;20032;-47
2024/04/01 00:42:08;;;;;;;2.25;1.10;;;;;;;10.36;100.00;96664.16;5090944;28;20055;-47
2024/04/01 00:44:34;;;;;;;4.43;2.28;;;;;;;10.28;100.00;96673.28;5091478;28;20035;-48
2024/04/01 00:47:00;;;;;;;2.40;1.10;;;;;;;10.34;100.00;96684.59;5092650;28;20068;-47
2024/04/01 00:49:26;;;;;;;1.40;1.20;;;;;;;10.26;100.00;96695.50;5091057;28;20122;-47
2024/04/01 00:51:53;;;;;;;5.35;0.88;;;;;;;10.29;100.00;96708.13;5091128;28;20545;-47
2024/04/01 00:54:20;;;;;;;4.18;1.05;;;;;;;10.27;100.00;96718.09;5092874;28;20028;-47
2024/04/01 00:56:47;;;;;;;1.80;0.82;;;;;;;10.14;100.00;96725.28;5091354;28;20056;-47
2024/04/01 00:59:17;;;;;;;4.75;3.50;;;;;;;10.02;100.00;96729.88;5092144;28;20081;-47
2024/04/01 01:01:45;;;;;;;3.05;0.80;;;;;;;9.88;100.00;96736.50;5092132;28;20024;-47
2024/04/01 01:04:12;;;;;;;4.78;0.60;;;;;;;9.59;100.00;96749.75;5092085;28;20031;-47
2024/04/01 01:06:39;;;;;;;5.45;0.88;;;;;;;9.57;100.00;96764.91;5092384;28;20020;-47
2024/04/01 01:09:05;;;;;;;2.15;0.40;;;;;;;9.55;100.00;96764.38;5092070;28;20076;-48
2024/04/01 01:11:31;;;;;;;2.88;0.50;;;;;;;9.45;100.00;96767.63;5092033;28;20039;-47
2024/04/01 01:13:57;;;;;;;1.27;0.50;;;;;;;9.47;100.00;96788.34;5092032;28;20024;-47
2024/04/01 01:16:23;;;;;;;2.63;0.52;;;;;;;9.45;100.00;96793.81;5090837;28;20084;-47
2024/04/01 01:18:50;;;;;;;2.35;0.80;;;;;;;9.50;100.00;96808.84;5091901;28;20106;-47
2024/04/01 01:21:16;;;;;;;1.75;0.68;;;;;;;9.49;100.00;96815.09;5091821;28;20024;-47
2024/04/01 01:23:45;;;;;;;1.75;1.10;;;;;;;9.54;100.00;96812.56;5092268;28;20085;-48
2024/04/01 01:26:10;;;;;;;1.38;0.55;;;;;;;9.80;100.00;96816.34;5091896;28;20135;-47
2024/04/01 01:28:36;;;;;;;3.60;1.40;;;;;;;9.84;100.00;96804.34;5091947;28;20541;-47
2024/04/01 01:31:02;;;;;;;1.80;1.20;;;;;;;9.90;100.00;96800.75;5090543;28;20485;-47
2024/04/01 01:33:30;;;;;;;0.85;0.63;;;;;;;9.88;100.00;96791.53;5092238;28;20100;-47
2024/04/01 01:35:57;;;;;;;1.50;1.00;;;;;;;10.06;100.00;96785.19;5096071;28;20030;-47
2024/04/01 01:38:22;;;;;;;0.93;0.60;;;;;;;10.14;100.00;96787.38;5096206;28;20030;-47
2024/04/01 01:40:48;;;;;;;2.17;1.05;;;;;;;10.13;100.00;96789.22;5094491;28;20119;-47
2024/04/01 01:43:14;;;;;;;1.13;0.43;;;;;;;10.19;100.00;96801.34;5094712;28;20028;-47
2024/04/01 01:45:40;;;;;;;1.83;0.80;;;;;;;10.15;100.00;96809.97;5095883;28;20035;-47
2024/04/01 01:48:06;;;;;;;6.18;1.17;;;;;;;10.09;100.00;96816.16;5095887;28;20091;-47
2024/04/01 01:50:31;;;;;;;1.00;0.70;;;;;;;10.29;100.00;96807.75;5095802;28;20056;-47
2024/04/01 01:52:57;;;;;;;0.60;0.50;;;;;;;10.33;100.00;96820.16;5094718;28;20405;-47
2024/04/01 01:55:23;;;;;;;1.02;0.55;;;;;;;10.27;100.00;96834.22;5095715;28;20428;-47
2024/04/01 01:57:48;;;;;;;0.70;0.55;;;;;;;10.18;100.00;96835.66;5095725;28;20456;-47
2024/04/01 02:00:14;;;;;;;0.63;0.63;;;;;;;10.11;100.00;96840.31;5094225;28;20028;-46
2024/04/01 02:02:40;;;;;;;1.63;1.25;;;;;;;9.99;100.00;96845.66;5095594;28;20028;-47
2024/04/01 02:05:06;;;;;;;0.75;0.70;;;;;;;10.15;100.00;96857.94;5095590;28;20028;-47
2024/04/01 02:07:32;;;;;;;2.80;0.73;;;;;;;10.23;100.00;96866.41;5095463;28;20070;-46
2024/04/01 02:09:58;;;;;;;4.20;1.38;;;;;;;10.39;100.00;96858.53;5095502;28;20020;-46
2024/04/01 02:12:24;;;;;;;6.38;1.05;;;;;;;10.41;100.00;96844.38;5095652;28;20063;-47
2024/04/01 02:14:50;;;;;;;4.38;1.15;;;;;;;10.35;100.00;96815.47;5095746;28;20031;-46
2024/04/01 02:17:15;;;;;;;0.82;0.70;;;;;;;10.42;100.00;96823.13;5095614;28;20052;-46
2024/04/01 02:19:47;;;;;;;6.05;1.75;;;;;;;10.48;100.00;96843.13;5095234;28;20039;-46
2024/04/01 02:22:14;;;;;;;6.00;1.63;;;;;;;10.55;100.00;96824.63;5093807;28;20027;-46
2024/04/01 02:24:41;;;;;;;3.03;0.93;;;;;;;10.68;100.00;96800.59;5093985;28;20036;-46
2024/04/01 02:27:09;;;;;;;3.47;1.27;;;;;;;10.65;100.00;96798.47;5093804;28;20049;-46
2024/04/01 02:29:38;;;;;;;17.25;13.63;;;;;;;10.74;100.00;96825.06;5095106;28;20508;-46
2024/04/01 02:32:04;;;;;;;6.60;4.93;;;;;;;10.71;100.00;96836.06;5095009;28;20493;-46
2024/04/01 02:34:30;;;;;;;3.92;2.60;;;;;;;10.73;100.00;96842.63;5094011;28;20035;-46
2024/04/01 02:36:56;;;;;;;5.95;1.92;;;;;;;10.77;100.00;96848.97;5094897;28;20023;-46
2024/04/01 02:39:22;;;;;;;5.40;1.60;;;;;;;10.68;100.00;96865.41;5094826;28;20119;-46
2024/04/01 02:41:50;;;;;;;2.42;0.80;;;;;;;10.64;100.00;96886.06;5094833;28;20059;-46
2024/04/01 02:44:16;;;;;;;2.22;1.05;;;;;;;10.58;100.00;96893.13;5094731;28;20030;-46
2024/04/01 02:46:43;;;;;;;0.98;0.80;;;;;;;10.51;100.00;96882.00;5093620;28;20024;-46
2024/04/01 02:49:10;;;;;;;1.67;1.17;;;;;;;10.50;100.00;96903.22;5094717;28;20028;-46
2024/04/01 02:51:37;;;;;;;1.13;0.77;;;;;;;10.34;100.00;96905.66;5093342;28;20036;-46
2024/04/01 02:54:03;;;;;;;2.08;1.40;;;;;;;10.31;100.00;96897.50;5093570;28;20020;-46
2024/04/01 02:56:29;;;;;;;3.45;2.10;;;;;;;10.39;100.00;96900.47;5093252;28;20092;-46
2024/04/01 02:58:56;;;;;;;4.03;2.28;;;;;;;10.58;100.00;96914.09;5094486;28;20035;-46
2024/04/01 03:01:21;;;;;;;4.80;2.28;;;;;;;10.70;100.00;96915.78;5094505;28;20040;-46
2024/04/01 03:03:47;;;;;;;4.22;1.75;;;;;;;10.62;100.00;96905.72;5094460;28;20024;-46
2024/04/01 03:06:14;;;;;;;0.88;0.25;;;;;;;10.57;100.00;96909.88;5093155;28;20456;-46
2024/04/01 03:08:40;;;;;;;4.55;1.00;;;;;;;10.55;100.00;96916.41;5094379;28;20389;-46
2024/04/01 03:11:06;;;;;;;2.05;0.90;;;;;;;10.53;100.00;96919.28;5094281;28;20028;-46
2024/04/01 03:13:35;;;;;;;0.47;0.45;;;;;;;10.54;100.00;96936.59;5094291;28;20504;-46
2024/04/01 03:16:00;;;;;;;3.72;0.40;;;;;;;10.47;100.00;96935.19;5092889;28;20089;-46
2024/04/01 03:18:26;;;;;;;0.15;0.15;;;;;;;10.44;100.00;96939.06;5094102;28;20035;-47
2024/04/01 03:20:52;;;;;;;3.35;0.80;;;;;;;10.39;100.00;96947.69;5094019;28;20030;-47
2024/04/01 03:23:18;;;;;;;4.82;1.38;;;;;;;10.44;100.00;96949.56;5094115;28;20016;-47
2024/04/01 03:25:51;;;;;;;7.97;0.77;;;;;;;10.51;100.00;96957.28;5092749;28;20107;-47
2024/04/01 03:28:18;;;;;;;4.82;1.60;;;;;;;10.59;100.00;96964.72;5094015;28;20070;-47
2024/04/01 03:30:45;;;;;;;0.82;0.80;;;;;;;10.72;100.00;96979.31;5092570;28;20023;-47
2024/04/01 03:33:12;;;;;;;3.17;0.90;;;;;;;10.82;100.00;96978.66;5093794;28;20016;-47
2024/04/01 03:35:41;;;;;;;2.90;0.50;;;;;;;10.88;100.00;96988.16;5092519;28;20453;-47
2024/04/01 03:38:08;;;;;;;6.35;1.30;;;;;;;10.99;100.00;97000.38;5093782;28;20054;-47
2024/04/01 03:40:41;;;;;;;7.45;1.40;;;;;;;11.04;100.00;96999.66;5093418;28;20394;-48
2024/04/01 03:43:09;;;;;;;2.15;0.73;;;;;;;10.97;100.00;97011.13;5093710;28;20107;-48
2024/04/01 03:45:36;;;;;;;1.92;1.02;;;;;;;11.01;100.00;97011.44;5092300;28;20081;-48
2024/04/01 03:48:03;;;;;;;6.68;0.90;;;;;;;11.05;100.00;97011.75;5092251;28;20031;-48
2024/04/01 03:50:28;;;;;;;5.05;1.83;;;;;;;11.10;100.00;97015.22;5092204;28;20035;-47
2024/04/01 03:52:54;;;;;;;1.55;0.65;;;;;;;11.22;100.00;97020.34;5093520;28;20040;-47
2024/04/01 03:55:20;;;;;;;1.50;0.50;;;;;;;11.17;100.00;97028.16;5093488;28;20111;-47
2024/04/01 03:57:46;;;;;;;2.60;0.45;;;;;;;11.15;100.00;97030.25;5091939;28;20032;-47
2024/04/01 04:00:14;;;;;;;2.10;1.45;;;;;;;11.11;100.00;97039.66;5091979;28;20078;-48
2024/04/01 04:02:42;;;;;;;1.52;0.55;;;;;;;11.07;100.00;97041.97;5092034;28;20036;-48
2024/04/01 04:05:09;;;;;;;5.38;0.60;;;;;;;11.07;100.00;97049.06;5093539;28;20401;-47
2024/04/01 04:07:35;;;;;;;2.67;0.68;;;;;;;11.16;100.00;97060.69;5092093;28;20031;-47
2024/04/01 04:10:03;;;;;;;2.50;0.80;;;;;;;11.28;100.00;97064.00;5091960;28;20020;-48
2024/04/01 04:12:31;;;;;;;2.65;0.52;;;;;;;11.22;100.00;97078.09;5091877;28;20024;-47
2024/04/01 04:15:00;;;;;;;4.93;0.50;;;;;;;11.20;100.00;97088.06;5075127;28;20036;-48
2024/04/01 04:17:26;;;;;;;3.03;0.60;;;;;;;11.26;100.00;97088.91;5092150;28;20027;-47
2024/04/01 04:19:52;;;;;;;3.00;1.65;;;;;;;11.23;100.00;97099.91;5091618;28;20520;-48
2024/04/01 04:22:18;;;;;;;2.42;0.30;;;;;;;11.28;100.00;97106.00;5091656;28;20028;-48
2024/04/01 04:24:44;;;;;;;2.42;0.57;;;;;;;11.20;100.00;97116.94;5092890;28;20032;-48
2024/04/01 04:27:10;;;;;;;2.03;0.43;;;;;;;11.29;100.00;97120.75;5092871;28;20401;-48
2024/04/01 04:29:35;;;;;;;3.50;0.43;;;;;;;11.26;100.00;97126.47;5093079;28;20024;-48
2024/04/01 04:32:09;;;;;;;1.15;0.40;;;;;;;11.28;100.00;97127.03;5091438;28;20241;-48
2024/04/01 04:34:35;;;;;;;1.63;0.50;;;;;;;11.31;100.00;97126.56;5093035;28;20454;-48
2024/04/01 04:37:00;;;;;;;1.33;0.20;;;;;;;11.32;100.00;97120.25;5091355;28;20111;-48
2024/04/01 04:39:26;;;;;;;3.67;2.55;;;;;;;11.32;100.00;97133.38;5091269;28;20543;-48
2024/04/01 04:41:52;;;;;;;2.15;0.45;;;;;;;11.32;100.00;97143.88;5090945;28;20098;-48
2024/04/01 04:44:18;;;;;;;1.02;0.38;;;;;;;11.20;100.00;97146.63;5091265;28;20032;-48
2024/04/01 04:46:44;;;;;;;3.35;1.70;;;;;;;11.15;100.00;97137.91;5092496;28;20028;-48
2024/04/01 04:49:10;;;;;;;1.63;0.57;;;;;;;11.08;100.00;97153.81;5092472;28;20027;-48
2024/04/01 04:51:36;;;;;;;3.47;1.67;;;;;;;11.00;100.00;97151.59;5092429;28;20020;-48
2024/04/01 04:54:01;;;;;;;4.68;1.13;;;;;;;10.99;100.00;97161.28;5091156;28;20539;-48
2024/04/01 04:56:27;;;;;;;4.20;3.70;;;;;;;10.95;100.00;97160.19;5091020;28;20045;-48
2024/04/01 04:58:56;;;;;;;4.93;0.85;;;;;;;10.94;100.00;97168.28;5092219;28;20024;-48
2024/04/01 05:01:22;;;;;;;7.45;5.18;;;;;;;11.02;100.00;97170.50;5090951;28;20024;-48
2024/04/01 05:03:48;;;;;;;5.43;2.75;;;;;;;11.06;100.00;97182.13;5092246;28;20054;-48
2024/04/01 05:06:14;;;;;;;5.30;4.80;;;;;;;11.07;100.00;97186.34;5092119;28;20055;-48
2024/04/01 05:08:41;;;;;;;2.58;1.42;;;;;;;11.08;100.00;97190.56;5091638;28;20058;-48
2024/04/01 05:11:09;;;;;;;1.73;0.95;;;;;;;11.03;100.00;97192.31;5092349;28;20208;-48
2024/04/01 05:13:36;;;;;;;1.27;0.70;;;;;;;11.08;100.00;97190.56;5092070;28;20042;-48
2024/04/01 05:16:05;;;;;;;1.42;0.52;;;;;;;11.13;100.00;97189.84;5092015;28;20421;-48
2024/04/01 05:18:31;;;;;;;3.28;0.63;;;;;;;11.13;100.00;97198.53;5091904;28;20080;-48
2024/04/01 05:21:01;;;;;;;3.63;1.73;;;;;;;11.08;100.00;97200.28;5091950;28;20028;-48
2024/04/01 05:23:28;;;;;;;4.10;1.15;;;;;;;11.08;100.00;97211.56;5091974;28;20047;-48
2024/04/01 05:25:54;;;;;;;1.05;0.80;;;;;;;11.16;100.00;97223.50;5092196;28;20032;-48
2024/04/01 05:28:21;;;;;;;2.58;0.65;;;;;;;11.30;100.00;97231.84;5091921;28;20044;-48
2024/04/01 05:30:52;;;;;;;3.92;2.75;;;;;;;11.32;100.00;97229.78;5091842;28;20023;-48
2024/04/01 05:33:21;;;;;;;4.93;4.22;;;;;;;11.48;100.00;97233.41;5091826;28;20016;-48
2024/04/01 05:35:48;;;;;;;4.03;1.60;;;;;;;11.44;100.00;97235.72;5090506;28;20077;-48
2024/04/01 05:38:14;;;;;;;1.02;0.82;;;;;;;11.58;100.00;97244.84;5091739;28;20028;-48
2024/04/01 05:40:41;;;;;;;7.18;5.47;;;;;;;11.74;100.00;97245.06;5091630;28;20020;-48
2024/04/01 05:43:06;;;;;;;4.35;1.88;;;;;;;11.78;100.00;97256.69;5091564;28;20048;-48
2024/04/01 05:45:33;;;;;;;3.25;1.30;;;;;;;11.95;100.00;97269.78;5090705;28;20505;-48
2024/04/01 05:47:59;;;;;;;3.15;0.60;;;;;;;12.01;100.00;97268.81;5090748;28;20036;-48
2024/04/01 05:50:24;;;;;;;3.45;1.27;;;;;;;12.06;100.00;97270.72;5091738;28;20043;-48
2024/04/01 05:52:50;;;;;;;1.58;0.47;;;;;;;12.19;100.00;97284.31;5091671;28;20512;-48
2024/04/01 05:55:16;;;;;;;2.50;0.50;;;;;;;12.19;100.00;97289.56;5091653;28;20020;-48
2024/04/01 05:57:42;;;;;;;3.90;3.20;;;;;;;12.24;100.00;97294.09;5091874;28;20106;-48
2024/04/01 06:00:08;;;;;;;6.57;1.05;;;;;;;12.25;100.00;97290.41;5091540;28;20051;-48
2024/04/01 06:02:33;;;;;;;1.55;0.20;;;;;;;12.31;100.00;97299.16;5091510;28;20054;-48
2024/04/01 06:04:59;;;;;;;5.80;0.70;;;;;;;12.28;100.00;97304.91;5091557;28;20050;-48
2024/04/01 06:07:26;;;;;;;4.07;1.40;;;;;;;12.33;100.00;97303.13;5090346;28;20038;-48
2024/04/01 06:09:58;;;;;;;5.70;1.67;;;;;;;12.41;100.00;97314.25;5091533;28;20036;-48
2024/04/01 06:12:24;;;;;;;4.80;0.75;;;;;;;12.52;100.00;97319.41;5090453;28;20039;-48
2024/04/01 06:14:50;;;;;;;0.82;0.60;;;;;;;12.51;100.00;97317.81;5090240;28;20032;-48
2024/04/01 06:17:16;;;;;;;2.17;0.60;;;;;;;12.38;100.00;97329.50;5091388;28;20062;-48
2024/04/01 06:19:42;;;;;;;2.33;0.70;;;;;;;12.42;100.00;97329.03;5090716;28;20035;-48
2024/04/01 06:22:09;;;;;;;2.10;0.65;;;;;;;12.42;100.00;97335.06;5094234;28;20028;-48
2024/04/01 06:24:34;;;;;;;1.42;0.60;;;;;;;12.41;100.00;97328.22;5095227;28;20035;-46
2024/04/01 06:27:00;;;;;;;2.42;0.90;;;;;;;12.32;100.00;97335.75;5093849;28;20032;-46
2024/04/01 06:29:26;;;;;;;0.95;0.40;;;;;;;12.19;100.00;97329.03;5093875;28;20020;-46
2024/04/01 06:31:51;;;;;;;2.45;0.40;;;;;;;12.30;100.00;97334.41;5095061;28;20027;-46
2024/04/01 06:34:17;;;;;;;1.52;0.70;;;;;;;12.42;100.00;97339.56;5093769;28;20027;-46
2024/04/01 06:36:43;;;;;;;4.15;0.88;;;;;;;12.48;100.00;97349.88;5094993;28;20028;-47
2024/04/01 06:39:11;;;;;;;1.08;0.32;;;;;;;12.54;100.00;97351.53;5095112;28;20451;-46
2024/04/01 06:41:38;;;;;;;1.90;0.75;;;;;;;12.62;100.00;97357.41;5077040;28;20101;-46
2024/04/01 06:44:04;;;;;;;0.98;0.47;;;;;;;12.64;100.00;97360.59;5093539;28;20440;-46
2024/04/01 06:46:30;;;;;;;3.67;0.80;;;;;;;12.69;100.00;97368.53;5094797;28;20024;-46
2024/04/01 06:48:55;;;;;;;1.20;0.70;;;;;;;12.80;100.00;97372.88;5094804;28;20063;-46
2024/04/01 06:51:21;;;;;;;1.48;0.60;;;;;;;12.77;100.00;97379.41;5076540;28;20027;-46
2024/04/01 06:53:47;;;;;;;1.83;0.82;;;;;;;12.80;100.00;97386.03;5094581;28;20027;-46
2024/04/01 06:56:12;;;;;;;2.28;0.93;;;;;;;12.82;100.00;97391.03;5094615;28;20111;-46
2024/04/01 06:58:38;;;;;;;8.38;6.20;;;;;;;12.84;100.00;97391.59;5093167;28;20493;-46
2024/04/01 07:01:04;;;;;;;4.00;2.70;;;;;;;12.86;100.00;97390.31;5094433;28;20020;-46
2024/04/01 07:03:29;;;;;;;1.70;0.60;;;;;;;12.83;100.00;97398.69;5093155;28;20016;-46
2024/04/01 07:05:55;;;;;;;4.35;1.00;;;;;;;12.93;100.00;97392.75;5094482;28;20141;-47
2024/04/01 07:08:22;;;;;;;1.95;0.60;;;;;;;13.04;100.00;97401.53;5093054;28;20062;-46
2024/04/01 07:10:47;;;;;;;5.50;1.98;;;;;;;13.11;100.00;97407.44;5094306;28;20016;-46
2024/04/01 07:13:13;;;;;;;0.43;0.35;;;;;;;13.31;100.00;97407.66;5094327;28;20070;-46
2024/04/01 07:15:39;;;;;;;9.20;8.27;;;;;;;13.48;100.00;97402.28;5094187;28;20097;-46
2024/04/01 07:18:05;;;;;;;3.72;0.80;;;;;;;13.63;100.00;97416.66;5094173;28;20553;-46
2024/04/01 07:20:30;;;;;;;3.30;0.60;;;;;;;13.54;100.00;97417.09;5093990;28;20057;-46
2024/04/01 07:22:56;;;;;;;3.47;2.30;;;;;;;13.43;100.00;97425.94;5093096;28;20024;-46
2024/04/01 07:25:22;;;;;;;8.48;7.55;;;;;;;13.41;100.00;97427.25;5094306;28;20394;-46
2024/04/01 07:27:48;;;;;;;6.15;4.88;;;;;;;13.39;100.00;97427.50;5092649;28;20024;-46
2024/04/01 07:30:15;;;;;;;3.22;2.67;;;;;;;13.31;100.00;97446.38;5093953;28;20022;-46
2024/04/01 07:32:41;;;;;;;5.57;3.22;;;;;;;13.02;100.00;97451.03;5093425;28;20020;-46
2024/04/01 07:35:06;;;;;;;3.92;3.08;;;;;;;12.92;100.00;97459.66;5092561;28;20039;-46
2024/04/01 07:37:32;;;;;;;5.97;4.75;;;;;;;12.82;100.00;97468.22;5092502;28;20024;-46
2024/04/01 07:39:58;;;;;;;4.50;2.58;;;;;;;12.78;100.00;97469.75;5093711;28;20150;-46
2024/04/01 07:42:24;;;;;;;1.00;0.57;;;;;;;12.80;100.00;97470.28;5093484;28;20048;-46
2024/04/01 07:44:50;;;;;;;3.13;0.75;;;;;;;12.79;100.00;97474.75;5093681;28;20063;-46
2024/04/01 07:47:17;;;;;;;6.68;2.17;;;;;;;12.91;100.00;97473.84;5093916;28;20043;-47
2024/04/01 07:49:43;;;;;;;2.63;1.15;;;;;;;13.09;100.00;97476.16;5093576;28;20532;-46
2024/04/01 07:52:09;;;;;;;2.53;0.68;;;;;;;13.42;100.00;97479.72;5092236;28;20016;-46
2024/04/01 07:54:35;;;;;;;2.00;0.85;;;;;;;13.63;100.00;97485.19;5093532;28;20030;-46
2024/04/01 07:57:02;;;;;;;1.30;0.77;;;;;;;13.98;100.00;97485.50;5093467;28;20099;-46
2024/04/01 07:59:31;;;;;;;1.77;0.70;;;;;;;14.42;100.00;97481.84;5093300;28;20107;-46
2024/04/01 08:01:58;;;;;;;2.75;0.70;;;;;;;14.83;100.00;97482.09;5093319;28;20042;-46
2024/04/01 08:04:24;;;;;;;1.08;0.50;;;;;;;15.11;100.00;97499.38;5093349;28;20015;-47
2024/04/01 08:06:50;;;;;;;0.68;0.63;;;;;;;15.18;100.00;97504.44;5091948;28;20421;-46
2024/04/01 08:09:16;;;;;;;0.80;0.57;;;;;;;15.05;100.00;97502.25;5091927;28;20116;-46
2024/04/01 08:11:42;;;;;;;5.13;3.15;;;;;;;15.00;100.00;97512.81;5091970;28;20035;-46
2024/04/01 08:14:08;;;;;;;6.15;3.50;;;;;;;14.93;100.00;97518.31;5093132;28;20024;-47
2024/04/01 08:16:33;;;;;;;23.88;21.73;;;;;;;14.89;100.00;97519.88;5093012;28;20524;-47
2024/04/01 08:19:00;;;;;;;5.20;3.65;;;;;;;14.80;100.00;97522.22;5092994;28;20052;-46
2024/04/01 08:21:26;;;;;;;5.65;3.03;;;;;;;14.72;100.00;97528.78;5092980;28;20020;-47
2024/04/01 08:23:51;;;;;;;10.93;6.90;;;;;;;14.78;100.00;97538.31;5092889;28;20028;-46
2024/04/01 08:26:17;;;;;;;5.78;1.55;;;;;;;14.83;100.00;97545.50;5092899;28;20051;-47
2024/04/01 08:28:43;;;;;;;1.55;1.25;;;;;;;14.87;100.00;97551.84;5092804;28;20023;-46
2024/04/01 08:31:09;;;;;;;1.88;0.75;;;;;;;14.89;100.00;97559.50;5093044;28;20454;-47
2024/04/01 08:33:34;;;;;;;2.00;1.45;;;;;;;14.93;100.00;97577.25;5092688;28;20524;-47
2024/04/01 08:36:00;;;;;;;8.35;4.85;;;;;;;14.54;100.00;97574.84;5091420;28;20051;-46
2024/04/01 08:38:26;;;;;;;5.75;3.05;;;;;;;14.41;100.00;97582.38;5091335;28;20020;-46
2024/04/01 08:41:04;;;;;;;14.73;13.07;;;;;;;14.28;100.00;97588.88;5092548;28;20059;-46
2024/04/01 08:44:05;;;;;;;3.03;1.20;;;;;;;13.95;100.00;97601.25;5091859;28;20067;-46
2024/04/01 08:46:32;;;;;;;2.85;2.55;;;;;;;13.89;100.00;97605.69;5085841;28;20502;-47
2024/04/01 08:49:01;;;;;;;8.90;1.95;;;;;;;13.72;100.00;97603.13;5092526;28;20043;-46
2024/04/01 08:51:27;;;;;;;10.85;1.63;;;;;;;13.63;100.00;97614.38;5091148;28;20019;-46
2024/04/01 08:54:07;;;;;;;4.53;0.93;;;;;;;13.56;100.00;97607.44;5092338;28;20024;-46
2024/04/01 08:56:36;;;;;;;8.15;1.17;;;;;;;13.52;100.00;97610.78;5092351;28;20023;-46
2024/04/01 08:59:03;;;;;;;5.10;0.65;;;;;;;13.43;100.00;97607.00;5092254;28;20032;-46
2024/04/01 09:01:29;;;;;;;1.85;0.50;;;;;;;13.43;100.00;97609.66;5090986;28;20063;-46
2024/04/01 09:03:55;;;;;;;0.82;0.50;;;;;;;13.47;100.00;97614.16;5092297;28;20053;-46
2024/04/01 09:06:21;;;;;;;5.10;0.80;;;;;;;13.57;100.00;97606.38;5092216;28;20099;-46
2024/04/01 09:08:48;;;;;;;4.55;0.60;;;;;;;13.86;100.00;97610.66;5092245;28;20092;-46
2024/04/01 09:11:14;;;;;;;4.30;1.05;;;;;;;14.28;100.00;97613.44;5092141;28;20027;-46
2024/04/01 09:13:40;;;;;;;4.65;1.17;;;;;;;14.62;100.00;97609.78;5092171;28;20016;-46
2024/04/01 09:16:07;;;;;;;6.30;1.17;;;;;;;15.00;100.00;97616.66;5092323;28;20417;-47
2024/04/01 09:18:36;;;;;;;3.17;1.33;;;;;;;15.18;100.00;97615.44;5092262;28;20563;-46
2024/04/01 09:21:04;;;;;;;38.58;4.20;;;;;;;15.45;100.00;97619.78;5090655;28;20031;-46
2024/04/01 09:23:33;;;;;;;11.27;1.73;;;;;;;15.64;100.00;97610.34;5090711;28;20024;-46
2024/04/01 09:25:59;;;;;;;5.30;0.90;;;;;;;15.99;100.00;97614.16;5091959;28;20031;-46
2024/04/01 09:28:26;;;;;;;4.32;1.40;;;;;;;16.15;100.00;97613.13;5091950;28;20028;-46
2024/04/01 09:30:52;;;;;;;5.60;2.10;;;;;;;16.50;100.00;97614.22;5090606;28;20501;-47
2024/04/01 09:33:17;;;;;;;2.63;1.10;;;;;;;16.78;100.00;97618.19;5090609;28;20552;-47
2024/04/01 09:35:43;;;;;;;2.45;0.82;;;;;;;17.07;100.00;97616.84;5091895;28;20023;-46
2024/04/01 09:38:09;;;;;;;2.13;1.15;;;;;;;17.45;100.00;97612.75;5091899;28;20024;-47
2024/04/01 09:40:35;;;;;;;2.20;0.55;;;;;;;18.19;100.00;97607.63;5091681;28;20106;-47
2024/04/01 09:43:01;;;;;;;3.25;0.90;;;;;;;18.93;100.00;97608.38;5091652;28;20097;-47
2024/04/01 09:45:29;;;;;;;0.98;0.50;;;;;;;19.67;92.04;97612.59;5091767;28;20035;-44
2024/04/01 09:47:56;;;;;;;2.20;0.80;;;;;;;20.54;93.74;97606.03;5091718;28;20016;-44
2024/04/01 09:50:24;;;;;;;5.15;1.17;;;;;;;21.88;96.78;97599.81;5091975;28;20028;-44
2024/04/01 09:52:50;;;;;;;4.05;1.00;;;;;;;22.73;88.11;97607.97;5091947;28;20024;-45
2024/04/01 09:55:21;;;;;;;3.47;0.70;;;;;;;23.21;84.64;97601.16;5093390;28;20084;-45
2024/04/01 09:58:03;;;;;;;4.72;1.10;;;;;;;23.67;80.32;97588.38;5095741;28;20032;-45
2024/04/01 10:00:51;;;;;;;4.13;1.00;;;;;;;23.66;76.30;97592.13;5094438;28;20024;-45
2024/04/01 10:03:55;;;;;;;4.05;0.93;;;;;;;23.30;77.00;97599.31;5094521;28;20504;-45
2024/04/01 10:06:29;;;;;;;0.63;0.28;;;;;;;22.80;78.92;97607.56;5095580;28;20158;-45
2024/04/01 10:09:26;;;;;;;0.25;0.20;;;;;;;22.29;74.81;97598.88;5095609;28;20074;-45
2024/04/01 10:12:29;;;;;;;0.65;0.38;;;;;;;22.39;74.26;97603.22;5090625;28;20039;-45
2024/04/01 10:15:29;;;;;;;2.28;0.70;;;;;;;21.98;72.44;97611.38;5095484;28;20475;-45
2024/04/01 10:18:02;;;;;;;0.35;0.30;;;;;;;22.02;71.63;97609.66;5094099;28;20115;-45
2024/04/01 10:21:08;;;;;;;1.00;0.60;;;;;;;21.56;69.23;97608.75;5095406;28;20032;-45
2024/04/01 10:23:50;;;;;;;2.75;0.60;;;;;;;21.50;68.35;97608.06;5071321;28;20081;-45
2024/04/01 10:26:41;;;;;;;4.65;1.20;;;;;;;22.52;70.74;97610.38;5093932;28;20043;-45
2024/04/01 10:29:42;;;;;;;1.17;0.65;;;;;;;24.46;70.71;97608.72;5095144;28;20024;-45
2024/04/01 10:32:26;;;;;;;2.45;0.40;;;;;;;26.58;65.42;97608.94;5095189;28;20111;-45
2024/04/01 10:35:08;;;;;;;0.30;0.30;;;;;;;27.89;54.42;97601.97;5093797;28;20115;-45
2024/04/01 10:37:58;;;;;;;1.10;0.73;;;;;;;28.48;49.30;97595.88;5094998;28;20028;-46
2024/04/01 10:40:49;;;;;;;1.23;0.52;;;;;;;29.03;49.15;97604.22;5094850;28;20482;-46
2024/04/01 10:43:44;;;;;;;3.38;1.35;;;;;;;29.79;41.81;97606.03;5093467;28;20449;-46
2024/04/01 10:46:46;;;;;;;1.10;0.65;;;;;;;29.86;35.62;97600.75;5076749;28;20533;-45
2024/04/01 10:49:46;;;;;;;1.20;0.70;;;;;;;29.45;38.35;97611.03;5094846;28;20023;-45
2024/04/01 10:52:42;;;;;;;5.63;2.05;;;;;;;28.83;35.85;97614.16;5095032;28;20039;-46
2024/04/01 10:55:26;;;;;;;1.77;0.73;;;;;;;28.16;37.91;97613.13;5094681;28;20076;-45
2024/04/01 10:58:29;;;;;;;0.77;0.30;;;;;;;28.07;42.12;97610.53;5093517;28;20050;-45
2024/04/01 11:01:22;;;;;;;2.17;0.40;;;;;;;28.49;42.43;97618.25;5094716;28;20024;-45
2024/04/01 11:04:29;;;;;;;2.22;0.82;;;;;;;29.01;42.54;97613.81;5094586;28;20075;-45
2024/04/01 11:07:16;;;;;;;2.38;0.50;;;;;;;28.52;38.46;97624.91;5093454;28;20486;-45
2024/04/01 11:10:08;;;;;;;0.68;0.35;;;;;;;28.20;35.54;97611.28;5094425;28;20486;-45
2024/04/01 11:12:40;;;;;;;0.75;0.30;;;;;;;28.07;40.85;97622.13;5094383;28;20031;-45
2024/04/01 11:15:09;;;;;;;0.20;0.20;;;;;;;28.91;40.17;97611.63;5093017;28;20473;-46
2024/04/01 11:17:36;;;;;;;0.50;0.20;;;;;;;28.35;36.86;97620.56;5076480;28;20020;-45
2024/04/01 11:20:26;;;;;;;2.92;0.80;;;;;;;27.48;36.51;97622.63;5094029;28;20103;-45
2024/04/01 11:23:25;;;;;;;3.70;1.08;;;;;;;27.43;33.32;97636.34;5094174;28;20028;-46
2024/04/01 11:26:14;;;;;;;0.52;0.30;;;;;;;27.04;35.72;97638.53;5094147;28;20505;-45
2024/04/01 11:29:20;;;;;;;1.65;0.43;;;;;;;27.14;32.42;97642.69;5092793;28;20024;-46
2024/04/01 11:32:00;;;;;;;0.20;0.10;;;;;;;26.11;31.59;97634.13;5070428;28;20040;-45
2024/04/01 11:34:46;;;;;;;1.48;0.68;;;;;;;25.35;32.01;97637.72;5093921;28;20035;-44
2024/04/01 11:37:37;;;;;;;2.33;0.95;;;;;;;24.54;32.40;97649.31;5093629;28;20036;-44